createdAt,value
2018-11-05T00:02:35.210Z,0.12
2018-11-05T00:12:35.282Z,0.10
2018-11-05T00:22:35.191Z,0.02
2018-11-05T00:32:35.280Z,0.00
2018-11-05T00:42:35.136Z,0.12
2018-11-05T00:52:35.214Z,0.05
2018-11-05T01:02:35.198Z,0.01
2018-11-05T01:12:35.211Z,0.01
2018-11-05T01:22:35.181Z,0.00
2018-11-05T01:32:35.274Z,0.06
2018-11-05T01:42:35.157Z,0.08
2018-11-05T01:52:35.269Z,0.04
2018-11-05T02:02:35.541Z,0.00
2018-11-05T02:12:35.256Z,0.07
2018-11-05T02:22:35.290Z,0.00
2018-11-05T02:32:35.518Z,0.01
2018-11-05T02:42:35.262Z,0.15
2018-11-05T02:52:35.151Z,0.00
2018-11-05T03:02:35.358Z,0.03
2018-11-05T03:12:35.178Z,0.02
2018-11-05T03:22:35.137Z,0.00
2018-11-05T03:32:35.574Z,0.05
2018-11-05T03:42:35.153Z,0.01
2018-11-05T03:52:35.187Z,0.03
2018-11-05T04:02:35.170Z,0.01
2018-11-05T04:12:35.293Z,0.03
2018-11-05T04:22:35.208Z,0.07
2018-11-05T04:32:35.125Z,0.21
2018-11-05T04:42:35.121Z,0.01
2018-11-05T04:52:35.197Z,0.08
2018-11-05T05:02:35.166Z,0.02
2018-11-05T05:12:35.345Z,0.01
2018-11-05T05:22:35.296Z,0.00
2018-11-05T05:32:35.373Z,0.01
2018-11-05T05:42:35.207Z,0.00
2018-11-05T05:52:35.136Z,0.11
2018-11-05T06:02:35.246Z,0.00
2018-11-05T06:12:35.124Z,0.00
2018-11-05T06:22:35.175Z,0.00
2018-11-05T06:32:35.227Z,0.03
2018-11-05T06:42:35.430Z,0.04
2018-11-05T06:52:35.316Z,0.04
2018-11-05T07:02:35.277Z,0.02
2018-11-05T07:12:35.198Z,0.08
2018-11-05T07:22:35.201Z,0.03
2018-11-05T07:32:35.149Z,0.05
2018-11-05T07:42:35.202Z,0.33
2018-11-05T07:52:35.947Z,0.82
2018-11-05T08:02:35.185Z,0.36
2018-11-05T08:12:35.189Z,0.74
2018-11-05T08:22:35.233Z,0.62
2018-11-05T08:32:35.217Z,0.40
2018-11-05T08:42:35.208Z,0.39
2018-11-05T08:52:35.934Z,1.06
2018-11-05T09:02:35.292Z,0.28
2018-11-05T09:12:35.295Z,0.40
2018-11-05T09:22:35.506Z,1.55
2018-11-05T09:32:35.239Z,0.83
2018-11-05T09:42:39.202Z,0.68
2018-11-05T09:52:38.520Z,0.47
2018-11-05T10:02:35.326Z,0.63
2018-11-05T10:12:36.032Z,0.48
2018-11-05T10:22:35.354Z,1.32
2018-11-05T10:32:43.637Z,1.28
2018-11-05T10:42:42.155Z,1.12
2018-11-05T10:52:35.355Z,0.73
2018-11-05T11:02:35.192Z,1.38
2018-11-05T11:12:36.212Z,1.07
2018-11-05T11:22:35.377Z,1.31
2018-11-05T11:32:35.442Z,0.84
2018-11-05T11:42:35.350Z,0.44
2018-11-05T11:52:35.364Z,0.14
2018-11-05T12:02:35.261Z,0.74
2018-11-05T12:12:35.362Z,0.67
2018-11-05T12:22:35.473Z,0.38
2018-11-05T12:32:35.555Z,0.51
2018-11-05T12:42:35.314Z,0.30
2018-11-05T12:52:35.320Z,0.26
2018-11-05T13:02:35.350Z,0.41
2018-11-05T13:12:35.389Z,0.54
2018-11-05T13:22:35.330Z,0.89
2018-11-05T13:32:35.395Z,0.79
2018-11-05T13:42:35.338Z,1.63
2018-11-05T13:52:35.417Z,1.60
2018-11-05T14:02:35.387Z,1.46
2018-11-05T14:12:35.379Z,1.38
2018-11-05T14:22:35.372Z,2.40
2018-11-05T14:32:35.325Z,2.15
2018-11-05T14:42:35.437Z,1.97
2018-11-05T14:52:35.385Z,1.51
2018-11-05T15:02:35.328Z,1.21
2018-11-05T15:12:35.313Z,0.92
2018-11-05T15:22:35.500Z,1.05
2018-11-05T15:32:35.660Z,1.87
2018-11-05T15:42:36.241Z,1.34
2018-11-05T15:52:35.569Z,0.65
2018-11-05T16:02:36.724Z,0.45
2018-11-05T16:12:35.429Z,0.01
2018-11-05T16:22:35.274Z,0.28
2018-11-05T16:32:35.254Z,0.10
2018-11-05T16:42:35.225Z,0.18
2018-11-05T16:52:35.284Z,0.04
2018-11-05T17:02:35.506Z,0.00
2018-11-05T17:12:35.245Z,0.02
2018-11-05T17:22:35.875Z,0.04
2018-11-05T17:32:35.345Z,0.01
2018-11-05T17:42:35.249Z,0.01
2018-11-05T17:52:35.293Z,0.02
2018-11-05T18:02:35.438Z,0.01
2018-11-05T18:12:35.264Z,0.02
2018-11-05T18:22:35.318Z,0.01
2018-11-05T18:32:35.230Z,0.04
2018-11-05T18:42:35.278Z,0.00
2018-11-05T18:52:35.278Z,0.00
2018-11-05T19:02:35.323Z,0.00
2018-11-05T19:12:35.384Z,0.01
2018-11-05T19:22:35.295Z,0.00
2018-11-05T19:32:35.267Z,0.00
2018-11-05T19:42:35.457Z,0.01
2018-11-05T19:52:35.296Z,0.00
2018-11-05T20:02:35.337Z,0.01
2018-11-05T20:12:35.297Z,0.02
2018-11-05T20:22:35.322Z,0.10
2018-11-05T20:32:35.798Z,0.00
2018-11-05T20:42:35.275Z,0.00
2018-11-05T20:52:35.224Z,0.01
2018-11-05T21:02:35.673Z,0.01
2018-11-05T21:12:35.216Z,0.14
2018-11-05T21:22:37.748Z,0.04
2018-11-05T21:32:35.225Z,0.00
2018-11-05T21:42:35.314Z,0.00
2018-11-05T21:52:35.248Z,0.00
2018-11-05T22:02:38.405Z,0.01
2018-11-05T22:12:35.212Z,0.00
2018-11-05T22:22:36.938Z,0.00
2018-11-05T22:32:35.959Z,0.02
2018-11-05T22:42:36.390Z,0.00
2018-11-05T22:52:35.288Z,0.00
2018-11-05T23:02:35.383Z,0.00
2018-11-05T23:12:35.277Z,0.00
2018-11-05T23:22:35.278Z,0.00
2018-11-05T23:32:35.303Z,0.00
2018-11-05T23:42:35.254Z,0.00
2018-11-05T23:52:35.235Z,0.01
